0TX1 – Local Weather Observations

Pecan Plantation

This weather station is operated by a private user located just north of the field. Data is gathered via OpenWeatherMap.org.

Last updated:
2022-05-28 20:47:36(3:47 pm)

Temperature: 94.2 °F

Sunrise / Sunset: 6:24 am / 8:31 pm

Civil Dawn / Dusk: 5:56 am / 8:59 pm

Nearby METARs

KGDJ 282035Z AUTO 16016G26KT 10SM CLR 35/17 A2977 RMK AO2 T03460167

KCPT 282035Z AUTO 16018G23KT 10SM CLR 34/18 A2978 RMK A01

KFWS 281948Z 14018G27KT 10SM CLR 34/18 A2981

KSEP 282035Z AUTO 16016G24KT 10SM CLR 35/14 A2980 RMK AO2 T03480142